KHRL/HRL METAR and TAF weather

Enter ICAO airport designator
Station Type Date Time Source
KHRL METAR 2019/10/18 10:52 UTC NOAA

KHRL 181052Z 34005KT 10SM CLR 18/16 A2981 RMK AO2 SLP095 T01830161


Station Type Date Time Source
KHRL Decoded METAR 2019/10/18 10:52 UTC NOAA

RIO GRANDE VALLEY, TX, United States (KHRL) 26-13N 97-39W 10M
Oct 18, 2019 - 06:52 AM EDT / 2019.10.18 1052 UTC
Wind: from the NNW (340 degrees) at 6 MPH (5 KT):0
Visibility: 10 mile(s):0
Sky conditions: clear
Temperature: 64.9 F (18.3 C)
Dew Point: 61.0 F (16.1 C)
Relative Humidity: 86%
Pressure (altimeter): 29.81 in. Hg (1009 hPa)
ob: KHRL 181052Z 34005KT 10SM CLR 18/16 A2981 RMK AO2 SLP095 T01830161
cycle: 11

Station Type Date Time Source
KHRL TAF 2019/10/18 06:33 UTC NOAA

TAF KHRL 180530Z 1806/1906 34006KT P6SM BKN050
FM182100 10008KT P6SM SCT050 BKN100

Example: see airport list